Plessisville, Canada
Current Conditions -  °F | °C
As of 4:00 PM on Thursday 18 Dec 2014 (Local Time) from CYQB Reporting Station
Overcast Overcast  
Wind Chill: 23°   Ceiling: 7500
Heat Index: 30°   Visibility: 15mi
Dew Point: 25°   Wind: 8mph
Humidity: 80%   Direction: 300°WNW
Pressure: 29.77"   Gusts: NA
Location:  46.22°N, 71.77°W
Report Text: CYQB 182100Z 30007KT 15SM FEW010 FEW035 OVC075 M01/M04 A2977 RMK SF1SC2AC6 SF TR SLP085
Loading
Personal Weather Stations






























Interactive Weather Map New forecast layout! Learn more

10-Day Weather Forecast

Advertisements
Track Severe Weather on mobile